sensor_id;sensor_type;location;lat;lon;timestamp;P1;durP1;ratioP1;P2;durP2;ratioP2
2858;SDS011;1437;53.250;10.406;2022-08-06T00:02:17;1.60;;;0.90;;
2858;SDS011;1437;53.250;10.406;2022-08-06T00:04:46;2.13;;;0.80;;
2858;SDS011;1437;53.250;10.406;2022-08-06T00:07:17;3.30;;;1.00;;
2858;SDS011;1437;53.250;10.406;2022-08-06T00:09:46;3.20;;;1.23;;
2858;SDS011;1437;53.250;10.406;2022-08-06T00:12:15;5.30;;;1.10;;
2858;SDS011;1437;53.250;10.406;2022-08-06T00:14:42;2.00;;;1.10;;
2858;SDS011;1437;53.250;10.406;2022-08-06T00:17:09;2.50;;;1.07;;
2858;SDS011;1437;53.250;10.406;2022-08-06T00:19:36;1.60;;;0.80;;
2858;SDS011;1437;53.250;10.406;2022-08-06T00:22:03;6.73;;;1.27;;
2858;SDS011;1437;53.250;10.406;2022-08-06T00:24:30;2.27;;;1.00;;
2858;SDS011;1437;53.250;10.406;2022-08-06T00:26:57;3.20;;;0.90;;
2858;SDS011;1437;53.250;10.406;2022-08-06T00:29:25;2.20;;;0.87;;
2858;SDS011;1437;53.250;10.406;2022-08-06T00:31:52;3.10;;;1.10;;
2858;SDS011;1437;53.250;10.406;2022-08-06T00:34:20;3.10;;;1.13;;
2858;SDS011;1437;53.250;10.406;2022-08-06T00:36:47;2.80;;;1.23;;
2858;SDS011;1437;53.250;10.406;2022-08-06T00:39:14;2.27;;;1.40;;
2858;SDS011;1437;53.250;10.406;2022-08-06T00:41:41;4.07;;;1.10;;
2858;SDS011;1437;53.250;10.406;2022-08-06T00:44:08;2.40;;;1.20;;
2858;SDS011;1437;53.250;10.406;2022-08-06T00:46:36;2.17;;;0.90;;
2858;SDS011;1437;53.250;10.406;2022-08-06T00:49:03;1.33;;;0.60;;
2858;SDS011;1437;53.250;10.406;2022-08-06T00:51:32;2.23;;;1.03;;
2858;SDS011;1437;53.250;10.406;2022-08-06T00:54:00;2.40;;;1.10;;
2858;SDS011;1437;53.250;10.406;2022-08-06T00:56:27;1.63;;;0.80;;
2858;SDS011;1437;53.250;10.406;2022-08-06T00:58:55;2.20;;;1.20;;
2858;SDS011;1437;53.250;10.406;2022-08-06T01:01:22;2.50;;;1.03;;
2858;SDS011;1437;53.250;10.406;2022-08-06T01:03:50;2.43;;;0.83;;
2858;SDS011;1437;53.250;10.406;2022-08-06T01:06:17;4.77;;;2.43;;
2858;SDS011;1437;53.250;10.406;2022-08-06T01:08:44;2.07;;;0.90;;
2858;SDS011;1437;53.250;10.406;2022-08-06T01:11:11;2.73;;;1.10;;
2858;SDS011;1437;53.250;10.406;2022-08-06T01:13:39;3.80;;;1.60;;
2858;SDS011;1437;53.250;10.406;2022-08-06T01:16:09;4.17;;;1.10;;
2858;SDS011;1437;53.250;10.406;2022-08-06T01:18:40;6.40;;;1.70;;
2858;SDS011;1437;53.250;10.406;2022-08-06T01:21:17;2.43;;;1.17;;
2858;SDS011;1437;53.250;10.406;2022-08-06T01:23:49;2.53;;;0.90;;
2858;SDS011;1437;53.250;10.406;2022-08-06T01:26:23;1.60;;;1.00;;
2858;SDS011;1437;53.250;10.406;2022-08-06T01:28:54;5.03;;;1.30;;
2858;SDS011;1437;53.250;10.406;2022-08-06T01:31:25;6.63;;;4.50;;
2858;SDS011;1437;53.250;10.406;2022-08-06T01:33:54;3.33;;;1.00;;
2858;SDS011;1437;53.250;10.406;2022-08-06T01:36:24;4.80;;;1.10;;
2858;SDS011;1437;53.250;10.406;2022-08-06T01:38:57;1.73;;;0.90;;
2858;SDS011;1437;53.250;10.406;2022-08-06T01:41:25;1.70;;;0.80;;
2858;SDS011;1437;53.250;10.406;2022-08-06T01:44:10;2.37;;;1.10;;
2858;SDS011;1437;53.250;10.406;2022-08-06T01:46:39;2.27;;;1.30;;
2858;SDS011;1437;53.250;10.406;2022-08-06T01:49:07;2.00;;;0.80;;
2858;SDS011;1437;53.250;10.406;2022-08-06T01:51:35;2.70;;;1.00;;
2858;SDS011;1437;53.250;10.406;2022-08-06T01:54:04;7.67;;;0.93;;
2858;SDS011;1437;53.250;10.406;2022-08-06T01:56:37;4.63;;;1.60;;
2858;SDS011;1437;53.250;10.406;2022-08-06T01:59:05;2.00;;;1.00;;
2858;SDS011;1437;53.250;10.406;2022-08-06T02:01:33;6.23;;;0.97;;
2858;SDS011;1437;53.250;10.406;2022-08-06T02:04:02;3.20;;;1.00;;
2858;SDS011;1437;53.250;10.406;2022-08-06T02:06:30;1.90;;;0.90;;
2858;SDS011;1437;53.250;10.406;2022-08-06T02:08:59;4.20;;;1.10;;
2858;SDS011;1437;53.250;10.406;2022-08-06T02:11:27;3.00;;;1.33;;
2858;SDS011;1437;53.250;10.406;2022-08-06T02:13:54;2.73;;;1.10;;
2858;SDS011;1437;53.250;10.406;2022-08-06T02:16:23;2.60;;;1.00;;
2858;SDS011;1437;53.250;10.406;2022-08-06T02:18:53;2.20;;;1.00;;
2858;SDS011;1437;53.250;10.406;2022-08-06T02:21:24;2.80;;;0.87;;
2858;SDS011;1437;53.250;10.406;2022-08-06T02:23:52;3.33;;;1.10;;
2858;SDS011;1437;53.250;10.406;2022-08-06T02:26:19;1.93;;;1.00;;
2858;SDS011;1437;53.250;10.406;2022-08-06T02:28:49;4.73;;;1.07;;
2858;SDS011;1437;53.250;10.406;2022-08-06T02:31:18;2.23;;;0.90;;
2858;SDS011;1437;53.250;10.406;2022-08-06T02:33:46;4.13;;;1.83;;
2858;SDS011;1437;53.250;10.406;2022-08-06T02:36:14;2.27;;;1.20;;
2858;SDS011;1437;53.250;10.406;2022-08-06T02:38:45;2.30;;;1.10;;
2858;SDS011;1437;53.250;10.406;2022-08-06T02:41:14;3.00;;;0.93;;
2858;SDS011;1437;53.250;10.406;2022-08-06T02:43:44;2.23;;;1.00;;
2858;SDS011;1437;53.250;10.406;2022-08-06T02:46:15;3.07;;;1.03;;
2858;SDS011;1437;53.250;10.406;2022-08-06T02:48:45;2.13;;;0.90;;
2858;SDS011;1437;53.250;10.406;2022-08-06T02:51:17;1.50;;;0.90;;
2858;SDS011;1437;53.250;10.406;2022-08-06T02:53:51;4.97;;;1.20;;
2858;SDS011;1437;53.250;10.406;2022-08-06T02:56:21;2.20;;;0.93;;
2858;SDS011;1437;53.250;10.406;2022-08-06T02:58:49;3.10;;;1.40;;
2858;SDS011;1437;53.250;10.406;2022-08-06T03:01:21;1.70;;;1.10;;
2858;SDS011;1437;53.250;10.406;2022-08-06T03:03:50;6.03;;;1.13;;
2858;SDS011;1437;53.250;10.406;2022-08-06T03:06:19;8.30;;;1.60;;
2858;SDS011;1437;53.250;10.406;2022-08-06T03:08:47;2.43;;;1.20;;
2858;SDS011;1437;53.250;10.406;2022-08-06T03:11:16;3.30;;;1.17;;
2858;SDS011;1437;53.250;10.406;2022-08-06T03:13:44;4.43;;;1.23;;
2858;SDS011;1437;53.250;10.406;2022-08-06T03:16:12;2.23;;;1.20;;
2858;SDS011;1437;53.250;10.406;2022-08-06T03:18:39;2.33;;;1.03;;
2858;SDS011;1437;53.250;10.406;2022-08-06T03:21:08;4.80;;;1.60;;
2858;SDS011;1437;53.250;10.406;2022-08-06T03:23:37;4.20;;;1.50;;
2858;SDS011;1437;53.250;10.406;2022-08-06T03:26:05;2.80;;;1.23;;
2858;SDS011;1437;53.250;10.406;2022-08-06T03:28:33;2.70;;;1.10;;
2858;SDS011;1437;53.250;10.406;2022-08-06T03:31:00;2.37;;;1.30;;
2858;SDS011;1437;53.250;10.406;2022-08-06T03:33:28;2.10;;;1.03;;
2858;SDS011;1437;53.250;10.406;2022-08-06T03:35:56;1.60;;;0.83;;
2858;SDS011;1437;53.250;10.406;2022-08-06T03:38:25;1.70;;;1.00;;
2858;SDS011;1437;53.250;10.406;2022-08-06T03:40:54;2.97;;;1.60;;
2858;SDS011;1437;53.250;10.406;2022-08-06T03:43:21;2.77;;;1.27;;
2858;SDS011;1437;53.250;10.406;2022-08-06T03:45:50;2.70;;;1.07;;
2858;SDS011;1437;53.250;10.406;2022-08-06T03:48:23;1.73;;;1.10;;
2858;SDS011;1437;53.250;10.406;2022-08-06T03:50:50;2.77;;;1.20;;
2858;SDS011;1437;53.250;10.406;2022-08-06T03:53:19;2.60;;;2.40;;
2858;SDS011;1437;53.250;10.406;2022-08-06T03:55:47;2.13;;;1.23;;
2858;SDS011;1437;53.250;10.406;2022-08-06T03:58:16;3.40;;;1.23;;
2858;SDS011;1437;53.250;10.406;2022-08-06T04:00:49;4.90;;;1.30;;
2858;SDS011;1437;53.250;10.406;2022-08-06T04:03:17;4.33;;;1.23;;
2858;SDS011;1437;53.250;10.406;2022-08-06T04:05:46;1.73;;;0.93;;
2858;SDS011;1437;53.250;10.406;2022-08-06T04:08:13;2.13;;;0.90;;
2858;SDS011;1437;53.250;10.406;2022-08-06T04:10:47;8.90;;;1.40;;
2858;SDS011;1437;53.250;10.406;2022-08-06T04:13:15;4.40;;;1.20;;
2858;SDS011;1437;53.250;10.406;2022-08-06T04:15:43;2.70;;;1.20;;
2858;SDS011;1437;53.250;10.406;2022-08-06T04:18:14;2.13;;;1.00;;
2858;SDS011;1437;53.250;10.406;2022-08-06T04:20:42;1.80;;;1.00;;
2858;SDS011;1437;53.250;10.406;2022-08-06T04:23:10;6.23;;;1.70;;
2858;SDS011;1437;53.250;10.406;2022-08-06T04:25:38;3.07;;;1.20;;
2858;SDS011;1437;53.250;10.406;2022-08-06T04:28:08;2.77;;;1.37;;
2858;SDS011;1437;53.250;10.406;2022-08-06T04:30:36;3.17;;;1.23;;
2858;SDS011;1437;53.250;10.406;2022-08-06T04:33:05;2.40;;;1.07;;
2858;SDS011;1437;53.250;10.406;2022-08-06T04:35:33;6.63;;;1.47;;
2858;SDS011;1437;53.250;10.406;2022-08-06T04:38:01;2.07;;;1.00;;
2858;SDS011;1437;53.250;10.406;2022-08-06T04:40:28;1.77;;;1.10;;
2858;SDS011;1437;53.250;10.406;2022-08-06T04:42:55;3.07;;;1.20;;
2858;SDS011;1437;53.250;10.406;2022-08-06T04:45:23;2.40;;;1.30;;
2858;SDS011;1437;53.250;10.406;2022-08-06T04:47:52;2.77;;;1.30;;
2858;SDS011;1437;53.250;10.406;2022-08-06T04:50:21;4.03;;;1.30;;
2858;SDS011;1437;53.250;10.406;2022-08-06T04:52:48;3.90;;;1.00;;
2858;SDS011;1437;53.250;10.406;2022-08-06T04:55:20;5.07;;;1.40;;
2858;SDS011;1437;53.250;10.406;2022-08-06T04:57:48;3.93;;;1.30;;
2858;SDS011;1437;53.250;10.406;2022-08-06T05:00:15;3.93;;;1.77;;
2858;SDS011;1437;53.250;10.406;2022-08-06T05:02:44;4.00;;;1.53;;
2858;SDS011;1437;53.250;10.406;2022-08-06T05:05:11;2.93;;;1.37;;
2858;SDS011;1437;53.250;10.406;2022-08-06T05:07:41;2.17;;;1.27;;
2858;SDS011;1437;53.250;10.406;2022-08-06T05:10:08;1.87;;;1.10;;
2858;SDS011;1437;53.250;10.406;2022-08-06T05:12:37;3.67;;;1.17;;
2858;SDS011;1437;53.250;10.406;2022-08-06T05:15:07;1.70;;;0.97;;
2858;SDS011;1437;53.250;10.406;2022-08-06T05:17:37;1.97;;;0.80;;
2858;SDS011;1437;53.250;10.406;2022-08-06T05:20:10;4.20;;;1.10;;
2858;SDS011;1437;53.250;10.406;2022-08-06T05:22:38;2.13;;;0.80;;
2858;SDS011;1437;53.250;10.406;2022-08-06T05:25:07;8.00;;;0.90;;
2858;SDS011;1437;53.250;10.406;2022-08-06T05:27:35;3.20;;;0.93;;
2858;SDS011;1437;53.250;10.406;2022-08-06T05:30:02;1.87;;;0.93;;
2858;SDS011;1437;53.250;10.406;2022-08-06T05:32:29;6.50;;;0.93;;
2858;SDS011;1437;53.250;10.406;2022-08-06T05:34:56;2.00;;;0.90;;
2858;SDS011;1437;53.250;10.406;2022-08-06T05:37:23;1.90;;;0.90;;
2858;SDS011;1437;53.250;10.406;2022-08-06T05:39:50;1.60;;;0.70;;
2858;SDS011;1437;53.250;10.406;2022-08-06T05:42:18;4.03;;;1.00;;
2858;SDS011;1437;53.250;10.406;2022-08-06T05:44:45;2.63;;;0.87;;
2858;SDS011;1437;53.250;10.406;2022-08-06T05:47:13;2.13;;;0.70;;
2858;SDS011;1437;53.250;10.406;2022-08-06T05:49:42;1.40;;;0.60;;
2858;SDS011;1437;53.250;10.406;2022-08-06T05:52:11;3.60;;;0.90;;
2858;SDS011;1437;53.250;10.406;2022-08-06T05:54:41;3.60;;;1.00;;
2858;SDS011;1437;53.250;10.406;2022-08-06T05:57:10;2.13;;;1.30;;
2858;SDS011;1437;53.250;10.406;2022-08-06T05:59:44;3.50;;;1.83;;
2858;SDS011;1437;53.250;10.406;2022-08-06T06:02:13;2.80;;;0.50;;
2858;SDS011;1437;53.250;10.406;2022-08-06T06:04:41;2.00;;;0.70;;
2858;SDS011;1437;53.250;10.406;2022-08-06T06:07:09;4.00;;;1.20;;
2858;SDS011;1437;53.250;10.406;2022-08-06T06:09:37;3.40;;;0.70;;
2858;SDS011;1437;53.250;10.406;2022-08-06T06:12:05;3.87;;;0.90;;
2858;SDS011;1437;53.250;10.406;2022-08-06T06:14:34;6.10;;;0.70;;
2858;SDS011;1437;53.250;10.406;2022-08-06T06:17:12;2.43;;;0.70;;
2858;SDS011;1437;53.250;10.406;2022-08-06T06:19:43;3.70;;;0.90;;
2858;SDS011;1437;53.250;10.406;2022-08-06T06:22:16;2.20;;;0.80;;
2858;SDS011;1437;53.250;10.406;2022-08-06T06:24:45;3.87;;;0.90;;
2858;SDS011;1437;53.250;10.406;2022-08-06T06:27:16;2.33;;;1.33;;
2858;SDS011;1437;53.250;10.406;2022-08-06T06:29:47;1.50;;;0.60;;
2858;SDS011;1437;53.250;10.406;2022-08-06T06:32:17;1.80;;;0.80;;
2858;SDS011;1437;53.250;10.406;2022-08-06T06:34:48;3.60;;;0.60;;
2858;SDS011;1437;53.250;10.406;2022-08-06T06:37:19;5.20;;;0.70;;
2858;SDS011;1437;53.250;10.406;2022-08-06T06:39:54;2.27;;;0.60;;
2858;SDS011;1437;53.250;10.406;2022-08-06T06:42:27;2.63;;;0.70;;
2858;SDS011;1437;53.250;10.406;2022-08-06T06:44:57;2.37;;;0.87;;
2858;SDS011;1437;53.250;10.406;2022-08-06T06:47:29;2.73;;;0.90;;
2858;SDS011;1437;53.250;10.406;2022-08-06T06:50:01;5.10;;;0.80;;
2858;SDS011;1437;53.250;10.406;2022-08-06T06:52:34;3.70;;;1.70;;
2858;SDS011;1437;53.250;10.406;2022-08-06T06:55:06;3.10;;;0.60;;
2858;SDS011;1437;53.250;10.406;2022-08-06T06:57:35;2.80;;;0.80;;
2858;SDS011;1437;53.250;10.406;2022-08-06T07:00:04;2.03;;;0.80;;
2858;SDS011;1437;53.250;10.406;2022-08-06T07:02:33;3.10;;;0.90;;
2858;SDS011;1437;53.250;10.406;2022-08-06T07:05:02;1.70;;;0.60;;
2858;SDS011;1437;53.250;10.406;2022-08-06T07:07:30;2.40;;;0.97;;
2858;SDS011;1437;53.250;10.406;2022-08-06T07:09:58;3.20;;;0.93;;
2858;SDS011;1437;53.250;10.406;2022-08-06T07:12:27;2.43;;;1.03;;
2858;SDS011;1437;53.250;10.406;2022-08-06T07:14:58;3.00;;;0.70;;
2858;SDS011;1437;53.250;10.406;2022-08-06T07:17:27;2.33;;;0.90;;
2858;SDS011;1437;53.250;10.406;2022-08-06T07:19:56;4.80;;;0.90;;
2858;SDS011;1437;53.250;10.406;2022-08-06T07:22:24;2.80;;;0.80;;
2858;SDS011;1437;53.250;10.406;2022-08-06T07:24:54;1.63;;;0.60;;
2858;SDS011;1437;53.250;10.406;2022-08-06T07:27:23;2.23;;;1.17;;
2858;SDS011;1437;53.250;10.406;2022-08-06T07:29:52;2.33;;;0.70;;
2858;SDS011;1437;53.250;10.406;2022-08-06T07:32:20;2.13;;;0.97;;
2858;SDS011;1437;53.250;10.406;2022-08-06T07:34:48;2.43;;;0.50;;
2858;SDS011;1437;53.250;10.406;2022-08-06T07:37:16;2.93;;;0.80;;
2858;SDS011;1437;53.250;10.406;2022-08-06T07:39:46;5.40;;;1.10;;
2858;SDS011;1437;53.250;10.406;2022-08-06T07:42:15;2.40;;;1.00;;
2858;SDS011;1437;53.250;10.406;2022-08-06T07:44:47;5.23;;;0.80;;
2858;SDS011;1437;53.250;10.406;2022-08-06T07:47:18;2.23;;;0.83;;
2858;SDS011;1437;53.250;10.406;2022-08-06T07:49:53;1.80;;;0.60;;
2858;SDS011;1437;53.250;10.406;2022-08-06T07:52:23;1.70;;;0.60;;
2858;SDS011;1437;53.250;10.406;2022-08-06T07:54:51;7.83;;;0.63;;
2858;SDS011;1437;53.250;10.406;2022-08-06T07:57:18;1.97;;;0.83;;
2858;SDS011;1437;53.250;10.406;2022-08-06T07:59:48;3.90;;;0.70;;
2858;SDS011;1437;53.250;10.406;2022-08-06T08:02:16;2.00;;;0.77;;
2858;SDS011;1437;53.250;10.406;2022-08-06T08:04:43;1.60;;;0.70;;
2858;SDS011;1437;53.250;10.406;2022-08-06T08:07:29;5.23;;;1.00;;
2858;SDS011;1437;53.250;10.406;2022-08-06T08:10:05;1.70;;;0.70;;
2858;SDS011;1437;53.250;10.406;2022-08-06T08:12:38;1.50;;;0.60;;
2858;SDS011;1437;53.250;10.406;2022-08-06T08:15:06;1.90;;;0.63;;
2858;SDS011;1437;53.250;10.406;2022-08-06T08:17:36;2.87;;;0.90;;
2858;SDS011;1437;53.250;10.406;2022-08-06T08:20:04;2.13;;;0.70;;
2858;SDS011;1437;53.250;10.406;2022-08-06T08:22:32;1.80;;;0.60;;
2858;SDS011;1437;53.250;10.406;2022-08-06T08:25:00;3.37;;;0.90;;
2858;SDS011;1437;53.250;10.406;2022-08-06T08:27:27;2.17;;;0.60;;
2858;SDS011;1437;53.250;10.406;2022-08-06T08:29:55;3.10;;;0.70;;
2858;SDS011;1437;53.250;10.406;2022-08-06T08:32:22;2.23;;;0.70;;
2858;SDS011;1437;53.250;10.406;2022-08-06T08:34:49;4.37;;;0.70;;
2858;SDS011;1437;53.250;10.406;2022-08-06T08:37:16;2.23;;;0.70;;
2858;SDS011;1437;53.250;10.406;2022-08-06T08:39:44;2.23;;;0.70;;
2858;SDS011;1437;53.250;10.406;2022-08-06T08:42:14;4.70;;;1.00;;
2858;SDS011;1437;53.250;10.406;2022-08-06T08:44:43;1.40;;;0.50;;
2858;SDS011;1437;53.250;10.406;2022-08-06T08:47:12;1.87;;;0.70;;
2858;SDS011;1437;53.250;10.406;2022-08-06T08:49:40;2.83;;;0.70;;
2858;SDS011;1437;53.250;10.406;2022-08-06T08:52:12;2.63;;;0.80;;
2858;SDS011;1437;53.250;10.406;2022-08-06T08:54:41;4.60;;;0.70;;
2858;SDS011;1437;53.250;10.406;2022-08-06T08:57:10;4.80;;;1.00;;
2858;SDS011;1437;53.250;10.406;2022-08-06T08:59:39;1.83;;;0.53;;
2858;SDS011;1437;53.250;10.406;2022-08-06T09:02:08;2.60;;;0.80;;
2858;SDS011;1437;53.250;10.406;2022-08-06T09:04:39;2.10;;;0.53;;
2858;SDS011;1437;53.250;10.406;2022-08-06T09:07:11;4.20;;;0.67;;
2858;SDS011;1437;53.250;10.406;2022-08-06T09:09:50;1.80;;;0.60;;
2858;SDS011;1437;53.250;10.406;2022-08-06T09:12:22;5.33;;;1.07;;
2858;SDS011;1437;53.250;10.406;2022-08-06T09:14:51;2.47;;;0.70;;
2858;SDS011;1437;53.250;10.406;2022-08-06T09:17:22;2.77;;;0.70;;
2858;SDS011;1437;53.250;10.406;2022-08-06T09:19:51;1.97;;;0.63;;
2858;SDS011;1437;53.250;10.406;2022-08-06T09:22:19;1.63;;;0.70;;
2858;SDS011;1437;53.250;10.406;2022-08-06T09:24:46;1.67;;;0.60;;
2858;SDS011;1437;53.250;10.406;2022-08-06T09:27:14;1.60;;;0.70;;
2858;SDS011;1437;53.250;10.406;2022-08-06T09:29:48;1.50;;;0.50;;
2858;SDS011;1437;53.250;10.406;2022-08-06T09:34:57;2.90;;;0.70;;
2858;SDS011;1437;53.250;10.406;2022-08-06T09:37:30;3.53;;;0.80;;
2858;SDS011;1437;53.250;10.406;2022-08-06T09:40:15;5.50;;;0.80;;
2858;SDS011;1437;53.250;10.406;2022-08-06T09:42:46;1.87;;;0.50;;
2858;SDS011;1437;53.250;10.406;2022-08-06T09:45:14;1.87;;;0.70;;
2858;SDS011;1437;53.250;10.406;2022-08-06T09:47:45;2.40;;;0.50;;
2858;SDS011;1437;53.250;10.406;2022-08-06T09:50:34;1.70;;;0.60;;
2858;SDS011;1437;53.250;10.406;2022-08-06T09:53:05;2.33;;;0.70;;
2858;SDS011;1437;53.250;10.406;2022-08-06T09:55:35;1.90;;;0.50;;
2858;SDS011;1437;53.250;10.406;2022-08-06T09:58:09;1.60;;;0.60;;
2858;SDS011;1437;53.250;10.406;2022-08-06T10:00:39;1.90;;;0.70;;
2858;SDS011;1437;53.250;10.406;2022-08-06T10:03:08;1.90;;;0.70;;
2858;SDS011;1437;53.250;10.406;2022-08-06T10:05:40;1.30;;;0.40;;
2858;SDS011;1437;53.250;10.406;2022-08-06T10:08:09;3.83;;;0.60;;
2858;SDS011;1437;53.250;10.406;2022-08-06T10:10:41;2.43;;;0.97;;
2858;SDS011;1437;53.250;10.406;2022-08-06T10:13:18;2.63;;;0.60;;
2858;SDS011;1437;53.250;10.406;2022-08-06T10:15:47;2.00;;;0.77;;
2858;SDS011;1437;53.250;10.406;2022-08-06T10:21:03;4.43;;;0.63;;
2858;SDS011;1437;53.250;10.406;2022-08-06T10:23:39;4.70;;;0.70;;
2858;SDS011;1437;53.250;10.406;2022-08-06T10:26:08;5.83;;;0.80;;
2858;SDS011;1437;53.250;10.406;2022-08-06T10:28:38;1.87;;;0.63;;
2858;SDS011;1437;53.250;10.406;2022-08-06T10:31:08;1.50;;;0.70;;
2858;SDS011;1437;53.250;10.406;2022-08-06T10:33:39;3.53;;;2.80;;
2858;SDS011;1437;53.250;10.406;2022-08-06T10:36:08;5.37;;;0.80;;
2858;SDS011;1437;53.250;10.406;2022-08-06T10:38:37;1.90;;;0.60;;
2858;SDS011;1437;53.250;10.406;2022-08-06T10:41:06;1.70;;;0.60;;
2858;SDS011;1437;53.250;10.406;2022-08-06T10:43:34;1.40;;;0.60;;
2858;SDS011;1437;53.250;10.406;2022-08-06T10:46:03;2.10;;;1.20;;
2858;SDS011;1437;53.250;10.406;2022-08-06T10:48:32;2.67;;;1.80;;
2858;SDS011;1437;53.250;10.406;2022-08-06T10:50:59;4.07;;;0.60;;
2858;SDS011;1437;53.250;10.406;2022-08-06T10:53:28;1.63;;;0.50;;
2858;SDS011;1437;53.250;10.406;2022-08-06T10:56:02;2.00;;;0.50;;
2858;SDS011;1437;53.250;10.406;2022-08-06T10:58:34;2.23;;;0.60;;
2858;SDS011;1437;53.250;10.406;2022-08-06T11:01:09;2.57;;;0.60;;
2858;SDS011;1437;53.250;10.406;2022-08-06T11:06:32;1.77;;;0.60;;
2858;SDS011;1437;53.250;10.406;2022-08-06T11:09:05;1.70;;;0.50;;
2858;SDS011;1437;53.250;10.406;2022-08-06T11:11:48;1.40;;;0.50;;
2858;SDS011;1437;53.250;10.406;2022-08-06T11:14:18;2.50;;;0.60;;
2858;SDS011;1437;53.250;10.406;2022-08-06T11:16:53;2.60;;;0.60;;
2858;SDS011;1437;53.250;10.406;2022-08-06T11:19:36;4.03;;;0.80;;
2858;SDS011;1437;53.250;10.406;2022-08-06T11:22:06;2.17;;;0.50;;
2858;SDS011;1437;53.250;10.406;2022-08-06T11:30:07;1.77;;;0.60;;
2858;SDS011;1437;53.250;10.406;2022-08-06T11:32:45;2.53;;;0.67;;
2858;SDS011;1437;53.250;10.406;2022-08-06T11:41:09;2.33;;;0.70;;
2858;SDS011;1437;53.250;10.406;2022-08-06T11:46:23;1.37;;;0.50;;
2858;SDS011;1437;53.250;10.406;2022-08-06T11:51:40;3.80;;;0.70;;
2858;SDS011;1437;53.250;10.406;2022-08-06T11:54:10;2.10;;;0.90;;
2858;SDS011;1437;53.250;10.406;2022-08-06T11:59:34;1.43;;;0.60;;
2858;SDS011;1437;53.250;10.406;2022-08-06T12:02:07;2.03;;;0.60;;
2858;SDS011;1437;53.250;10.406;2022-08-06T12:04:45;1.40;;;0.50;;
2858;SDS011;1437;53.250;10.406;2022-08-06T12:07:34;2.60;;;0.70;;
2858;SDS011;1437;53.250;10.406;2022-08-06T12:10:09;3.10;;;0.60;;
2858;SDS011;1437;53.250;10.406;2022-08-06T12:12:38;3.70;;;1.00;;
2858;SDS011;1437;53.250;10.406;2022-08-06T12:17:56;4.43;;;0.80;;
2858;SDS011;1437;53.250;10.406;2022-08-06T12:20:29;2.43;;;0.60;;
2858;SDS011;1437;53.250;10.406;2022-08-06T12:23:04;3.10;;;0.67;;
2858;SDS011;1437;53.250;10.406;2022-08-06T12:25:39;2.40;;;0.70;;
2858;SDS011;1437;53.250;10.406;2022-08-06T12:28:08;1.60;;;0.50;;
2858;SDS011;1437;53.250;10.406;2022-08-06T12:30:39;1.60;;;0.60;;
2858;SDS011;1437;53.250;10.406;2022-08-06T12:33:07;1.80;;;0.60;;
2858;SDS011;1437;53.250;10.406;2022-08-06T12:35:35;3.77;;;1.97;;
2858;SDS011;1437;53.250;10.406;2022-08-06T12:38:03;2.73;;;0.70;;
2858;SDS011;1437;53.250;10.406;2022-08-06T12:40:48;3.07;;;0.70;;
2858;SDS011;1437;53.250;10.406;2022-08-06T12:43:23;2.67;;;0.80;;
2858;SDS011;1437;53.250;10.406;2022-08-06T12:45:55;2.00;;;0.60;;
2858;SDS011;1437;53.250;10.406;2022-08-06T12:48:23;3.60;;;0.80;;
2858;SDS011;1437;53.250;10.406;2022-08-06T12:51:00;3.70;;;0.70;;
2858;SDS011;1437;53.250;10.406;2022-08-06T12:53:39;3.00;;;1.00;;
2858;SDS011;1437;53.250;10.406;2022-08-06T12:56:07;1.93;;;0.77;;
2858;SDS011;1437;53.250;10.406;2022-08-06T12:58:36;3.50;;;0.87;;
2858;SDS011;1437;53.250;10.406;2022-08-06T13:01:04;2.07;;;0.80;;
2858;SDS011;1437;53.250;10.406;2022-08-06T13:03:33;1.70;;;0.70;;
2858;SDS011;1437;53.250;10.406;2022-08-06T13:06:05;3.23;;;0.80;;
2858;SDS011;1437;53.250;10.406;2022-08-06T13:08:36;4.10;;;0.77;;
2858;SDS011;1437;53.250;10.406;2022-08-06T13:11:05;2.37;;;1.13;;
2858;SDS011;1437;53.250;10.406;2022-08-06T13:13:38;2.13;;;0.90;;
2858;SDS011;1437;53.250;10.406;2022-08-06T13:16:06;3.50;;;1.33;;
2858;SDS011;1437;53.250;10.406;2022-08-06T13:18:34;6.30;;;1.50;;
2858;SDS011;1437;53.250;10.406;2022-08-06T13:21:14;2.37;;;0.80;;
2858;SDS011;1437;53.250;10.406;2022-08-06T13:23:46;2.10;;;0.90;;
2858;SDS011;1437;53.250;10.406;2022-08-06T13:26:15;4.57;;;0.80;;
2858;SDS011;1437;53.250;10.406;2022-08-06T13:31:25;3.20;;;1.80;;
2858;SDS011;1437;53.250;10.406;2022-08-06T13:34:02;5.67;;;1.07;;
2858;SDS011;1437;53.250;10.406;2022-08-06T13:36:30;4.87;;;1.27;;
2858;SDS011;1437;53.250;10.406;2022-08-06T13:39:16;3.20;;;1.10;;
2858;SDS011;1437;53.250;10.406;2022-08-06T13:41:43;2.00;;;1.00;;
2858;SDS011;1437;53.250;10.406;2022-08-06T13:44:27;5.90;;;1.23;;
2858;SDS011;1437;53.250;10.406;2022-08-06T13:46:56;4.30;;;1.70;;
2858;SDS011;1437;53.250;10.406;2022-08-06T13:49:23;2.40;;;1.40;;
2858;SDS011;1437;53.250;10.406;2022-08-06T13:51:51;3.63;;;1.80;;
2858;SDS011;1437;53.250;10.406;2022-08-06T13:54:19;4.63;;;2.00;;
2858;SDS011;1437;53.250;10.406;2022-08-06T13:56:46;2.70;;;1.20;;
2858;SDS011;1437;53.250;10.406;2022-08-06T13:59:14;2.77;;;1.20;;
2858;SDS011;1437;53.250;10.406;2022-08-06T14:01:42;3.77;;;2.10;;
2858;SDS011;1437;53.250;10.406;2022-08-06T14:04:10;2.93;;;1.50;;
2858;SDS011;1437;53.250;10.406;2022-08-06T14:06:37;6.23;;;1.57;;
2858;SDS011;1437;53.250;10.406;2022-08-06T14:09:05;3.77;;;2.00;;
2858;SDS011;1437;53.250;10.406;2022-08-06T14:11:32;3.40;;;2.00;;
2858;SDS011;1437;53.250;10.406;2022-08-06T14:14:00;3.40;;;1.90;;
2858;SDS011;1437;53.250;10.406;2022-08-06T14:16:27;4.30;;;1.90;;
2858;SDS011;1437;53.250;10.406;2022-08-06T14:18:56;3.17;;;1.80;;
2858;SDS011;1437;53.250;10.406;2022-08-06T14:21:25;4.10;;;1.90;;
2858;SDS011;1437;53.250;10.406;2022-08-06T14:23:52;3.50;;;1.60;;
2858;SDS011;1437;53.250;10.406;2022-08-06T14:26:20;2.80;;;1.50;;
2858;SDS011;1437;53.250;10.406;2022-08-06T14:28:49;3.57;;;1.80;;
2858;SDS011;1437;53.250;10.406;2022-08-06T14:31:16;2.87;;;1.60;;
2858;SDS011;1437;53.250;10.406;2022-08-06T14:33:45;2.93;;;2.00;;
2858;SDS011;1437;53.250;10.406;2022-08-06T14:36:13;4.30;;;1.97;;
2858;SDS011;1437;53.250;10.406;2022-08-06T14:38:41;5.27;;;2.03;;
2858;SDS011;1437;53.250;10.406;2022-08-06T14:41:10;3.60;;;1.83;;
2858;SDS011;1437;53.250;10.406;2022-08-06T14:43:56;2.60;;;1.50;;
2858;SDS011;1437;53.250;10.406;2022-08-06T14:46:40;4.30;;;2.27;;
2858;SDS011;1437;53.250;10.406;2022-08-06T14:49:09;3.70;;;2.03;;
2858;SDS011;1437;53.250;10.406;2022-08-06T14:51:36;3.37;;;1.83;;
2858;SDS011;1437;53.250;10.406;2022-08-06T14:54:04;5.83;;;2.30;;
2858;SDS011;1437;53.250;10.406;2022-08-06T14:56:32;3.63;;;2.30;;
2858;SDS011;1437;53.250;10.406;2022-08-06T14:59:01;3.80;;;2.43;;
2858;SDS011;1437;53.250;10.406;2022-08-06T15:01:29;5.30;;;2.73;;
2858;SDS011;1437;53.250;10.406;2022-08-06T15:03:57;3.60;;;2.23;;
2858;SDS011;1437;53.250;10.406;2022-08-06T15:06:25;5.00;;;2.93;;
2858;SDS011;1437;53.250;10.406;2022-08-06T15:08:54;4.80;;;2.43;;
2858;SDS011;1437;53.250;10.406;2022-08-06T15:11:28;4.70;;;2.93;;
2858;SDS011;1437;53.250;10.406;2022-08-06T15:13:55;5.00;;;2.33;;
2858;SDS011;1437;53.250;10.406;2022-08-06T15:16:23;4.17;;;2.03;;
2858;SDS011;1437;53.250;10.406;2022-08-06T15:18:52;4.87;;;3.10;;
2858;SDS011;1437;53.250;10.406;2022-08-06T15:21:20;3.90;;;2.80;;
2858;SDS011;1437;53.250;10.406;2022-08-06T15:23:47;3.80;;;2.47;;
2858;SDS011;1437;53.250;10.406;2022-08-06T15:26:15;5.23;;;3.27;;
2858;SDS011;1437;53.250;10.406;2022-08-06T15:28:43;4.83;;;2.90;;
2858;SDS011;1437;53.250;10.406;2022-08-06T15:31:10;4.80;;;3.13;;
2858;SDS011;1437;53.250;10.406;2022-08-06T15:33:37;6.63;;;2.93;;
2858;SDS011;1437;53.250;10.406;2022-08-06T15:36:05;5.60;;;3.00;;
2858;SDS011;1437;53.250;10.406;2022-08-06T15:38:32;4.97;;;1.97;;
2858;SDS011;1437;53.250;10.406;2022-08-06T15:40:59;3.70;;;2.93;;
2858;SDS011;1437;53.250;10.406;2022-08-06T15:43:27;4.40;;;2.70;;
2858;SDS011;1437;53.250;10.406;2022-08-06T15:45:55;4.57;;;2.67;;
2858;SDS011;1437;53.250;10.406;2022-08-06T15:48:24;4.20;;;2.23;;
2858;SDS011;1437;53.250;10.406;2022-08-06T15:50:51;3.60;;;2.17;;